sensor_id;sensor_type;location;lat;lon;timestamp;temperature;humidity
3713;DHT22;1872;51.406;6.856;2022-08-03T00:00:05;19.90;99.90
3713;DHT22;1872;51.406;6.856;2022-08-03T00:02:31;19.90;99.90
3713;DHT22;1872;51.406;6.856;2022-08-03T00:04:56;19.90;99.90
3713;DHT22;1872;51.406;6.856;2022-08-03T00:07:22;19.80;99.90
3713;DHT22;1872;51.406;6.856;2022-08-03T00:09:47;19.80;99.90
3713;DHT22;1872;51.406;6.856;2022-08-03T00:12:13;19.80;99.90
3713;DHT22;1872;51.406;6.856;2022-08-03T00:14:39;19.80;99.90
3713;DHT22;1872;51.406;6.856;2022-08-03T00:17:05;19.80;99.90
3713;DHT22;1872;51.406;6.856;2022-08-03T00:19:30;19.70;99.90
3713;DHT22;1872;51.406;6.856;2022-08-03T00:21:56;19.70;99.90
3713;DHT22;1872;51.406;6.856;2022-08-03T00:24:21;19.70;99.90
3713;DHT22;1872;51.406;6.856;2022-08-03T00:26:47;19.70;99.90
3713;DHT22;1872;51.406;6.856;2022-08-03T00:29:13;19.70;99.90
3713;DHT22;1872;51.406;6.856;2022-08-03T00:31:38;19.70;99.90
3713;DHT22;1872;51.406;6.856;2022-08-03T00:34:05;19.60;99.90
3713;DHT22;1872;51.406;6.856;2022-08-03T00:36:31;19.60;99.90
3713;DHT22;1872;51.406;6.856;2022-08-03T00:38:56;19.60;99.90
3713;DHT22;1872;51.406;6.856;2022-08-03T00:41:22;19.50;99.90
3713;DHT22;1872;51.406;6.856;2022-08-03T00:43:48;19.50;99.90
3713;DHT22;1872;51.406;6.856;2022-08-03T00:46:14;19.50;99.90
3713;DHT22;1872;51.406;6.856;2022-08-03T00:48:40;19.50;99.90
3713;DHT22;1872;51.406;6.856;2022-08-03T00:51:06;19.50;99.90
3713;DHT22;1872;51.406;6.856;2022-08-03T00:53:34;19.50;99.90
3713;DHT22;1872;51.406;6.856;2022-08-03T00:55:59;19.40;99.90
3713;DHT22;1872;51.406;6.856;2022-08-03T00:58:25;19.40;99.90
3713;DHT22;1872;51.406;6.856;2022-08-03T01:00:51;19.40;99.90
3713;DHT22;1872;51.406;6.856;2022-08-03T01:03:18;19.40;99.90
3713;DHT22;1872;51.406;6.856;2022-08-03T01:08:25;19.30;99.90
3713;DHT22;1872;51.406;6.856;2022-08-03T01:11:37;19.30;99.90
3713;DHT22;1872;51.406;6.856;2022-08-03T01:14:12;19.30;99.90
3713;DHT22;1872;51.406;6.856;2022-08-03T01:17:02;19.30;99.90
3713;DHT22;1872;51.406;6.856;2022-08-03T01:19:55;19.30;99.90
3713;DHT22;1872;51.406;6.856;2022-08-03T01:23:02;19.20;99.90
3713;DHT22;1872;51.406;6.856;2022-08-03T01:31:12;19.10;99.90
3713;DHT22;1872;51.406;6.856;2022-08-03T01:33:42;19.10;99.90
3713;DHT22;1872;51.406;6.856;2022-08-03T01:36:17;19.10;99.90
3713;DHT22;1872;51.406;6.856;2022-08-03T01:38:57;19.10;99.90
3713;DHT22;1872;51.406;6.856;2022-08-03T01:41:32;19.00;99.90
3713;DHT22;1872;51.406;6.856;2022-08-03T01:44:00;19.10;99.90
3713;DHT22;1872;51.406;6.856;2022-08-03T01:46:30;19.00;99.90
3713;DHT22;1872;51.406;6.856;2022-08-03T01:48:57;19.10;99.90
3713;DHT22;1872;51.406;6.856;2022-08-03T01:51:24;19.00;99.90
3713;DHT22;1872;51.406;6.856;2022-08-03T01:53:50;19.10;99.90
3713;DHT22;1872;51.406;6.856;2022-08-03T01:56:24;19.00;99.90
3713;DHT22;1872;51.406;6.856;2022-08-03T01:58:52;19.10;99.90
3713;DHT22;1872;51.406;6.856;2022-08-03T02:01:20;19.10;99.90
3713;DHT22;1872;51.406;6.856;2022-08-03T02:03:53;19.10;99.90
3713;DHT22;1872;51.406;6.856;2022-08-03T02:06:21;19.10;99.90
3713;DHT22;1872;51.406;6.856;2022-08-03T02:08:48;19.10;99.90
3713;DHT22;1872;51.406;6.856;2022-08-03T02:11:16;19.10;99.90
3713;DHT22;1872;51.406;6.856;2022-08-03T02:13:42;19.10;99.90
3713;DHT22;1872;51.406;6.856;2022-08-03T02:16:09;19.10;99.90
3713;DHT22;1872;51.406;6.856;2022-08-03T02:18:37;19.10;99.90
3713;DHT22;1872;51.406;6.856;2022-08-03T02:21:04;19.10;99.90
3713;DHT22;1872;51.406;6.856;2022-08-03T02:23:32;19.00;99.90
3713;DHT22;1872;51.406;6.856;2022-08-03T02:26:00;19.00;99.90
3713;DHT22;1872;51.406;6.856;2022-08-03T02:28:38;18.90;99.90
3713;DHT22;1872;51.406;6.856;2022-08-03T02:31:10;19.00;99.90
3713;DHT22;1872;51.406;6.856;2022-08-03T02:33:40;18.90;99.90
3713;DHT22;1872;51.406;6.856;2022-08-03T02:36:07;18.90;99.90
3713;DHT22;1872;51.406;6.856;2022-08-03T02:38:37;18.90;99.90
3713;DHT22;1872;51.406;6.856;2022-08-03T02:41:08;18.80;99.90
3713;DHT22;1872;51.406;6.856;2022-08-03T02:43:38;18.80;99.90
3713;DHT22;1872;51.406;6.856;2022-08-03T02:46:06;18.80;99.90
3713;DHT22;1872;51.406;6.856;2022-08-03T02:48:35;18.80;99.90
3713;DHT22;1872;51.406;6.856;2022-08-03T02:51:02;18.80;99.90
3713;DHT22;1872;51.406;6.856;2022-08-03T02:53:29;18.80;99.90
3713;DHT22;1872;51.406;6.856;2022-08-03T02:55:57;18.80;99.90
3713;DHT22;1872;51.406;6.856;2022-08-03T02:58:25;18.80;99.90
3713;DHT22;1872;51.406;6.856;2022-08-03T03:00:52;18.80;99.90
3713;DHT22;1872;51.406;6.856;2022-08-03T03:03:18;18.80;99.90
3713;DHT22;1872;51.406;6.856;2022-08-03T03:05:45;18.80;99.90
3713;DHT22;1872;51.406;6.856;2022-08-03T03:08:18;18.80;99.90
3713;DHT22;1872;51.406;6.856;2022-08-03T03:10:44;18.70;99.90
3713;DHT22;1872;51.406;6.856;2022-08-03T03:13:12;18.70;99.90
3713;DHT22;1872;51.406;6.856;2022-08-03T03:15:40;18.70;99.90
3713;DHT22;1872;51.406;6.856;2022-08-03T03:18:07;18.70;99.90
3713;DHT22;1872;51.406;6.856;2022-08-03T03:20:36;18.70;99.90
3713;DHT22;1872;51.406;6.856;2022-08-03T03:23:03;18.70;99.90
3713;DHT22;1872;51.406;6.856;2022-08-03T03:25:33;18.70;99.90
3713;DHT22;1872;51.406;6.856;2022-08-03T03:28:00;18.60;99.90
3713;DHT22;1872;51.406;6.856;2022-08-03T03:30:27;18.70;99.90
3713;DHT22;1872;51.406;6.856;2022-08-03T03:32:54;18.60;99.90
3713;DHT22;1872;51.406;6.856;2022-08-03T03:35:21;18.60;99.90
3713;DHT22;1872;51.406;6.856;2022-08-03T03:37:47;18.60;99.90
3713;DHT22;1872;51.406;6.856;2022-08-03T03:40:13;18.60;99.90
3713;DHT22;1872;51.406;6.856;2022-08-03T03:42:39;18.60;99.90
3713;DHT22;1872;51.406;6.856;2022-08-03T03:45:06;18.70;99.90
3713;DHT22;1872;51.406;6.856;2022-08-03T03:47:34;18.60;99.90
3713;DHT22;1872;51.406;6.856;2022-08-03T03:50:02;18.70;99.90
3713;DHT22;1872;51.406;6.856;2022-08-03T03:52:28;18.60;99.90
3713;DHT22;1872;51.406;6.856;2022-08-03T03:54:54;18.60;99.90
3713;DHT22;1872;51.406;6.856;2022-08-03T03:57:20;18.60;99.90
3713;DHT22;1872;51.406;6.856;2022-08-03T03:59:45;18.60;99.90
3713;DHT22;1872;51.406;6.856;2022-08-03T04:02:11;18.70;99.90
3713;DHT22;1872;51.406;6.856;2022-08-03T04:04:38;18.60;99.90
3713;DHT22;1872;51.406;6.856;2022-08-03T04:07:25;18.60;99.90
3713;DHT22;1872;51.406;6.856;2022-08-03T04:10:19;18.60;99.90
3713;DHT22;1872;51.406;6.856;2022-08-03T04:13:08;18.60;99.90
3713;DHT22;1872;51.406;6.856;2022-08-03T04:15:37;18.60;99.90
3713;DHT22;1872;51.406;6.856;2022-08-03T04:18:05;18.60;99.90
3713;DHT22;1872;51.406;6.856;2022-08-03T04:20:34;18.60;99.90
3713;DHT22;1872;51.406;6.856;2022-08-03T04:23:02;18.60;99.90
3713;DHT22;1872;51.406;6.856;2022-08-03T04:25:31;18.60;99.90
3713;DHT22;1872;51.406;6.856;2022-08-03T04:28:02;18.70;99.90
3713;DHT22;1872;51.406;6.856;2022-08-03T04:30:29;18.60;99.90
3713;DHT22;1872;51.406;6.856;2022-08-03T04:32:56;18.60;99.90
3713;DHT22;1872;51.406;6.856;2022-08-03T04:35:24;18.60;99.90
3713;DHT22;1872;51.406;6.856;2022-08-03T04:37:51;18.60;99.90
3713;DHT22;1872;51.406;6.856;2022-08-03T04:40:27;18.70;99.90
3713;DHT22;1872;51.406;6.856;2022-08-03T04:42:54;18.70;99.90
3713;DHT22;1872;51.406;6.856;2022-08-03T04:45:20;18.70;99.90
3713;DHT22;1872;51.406;6.856;2022-08-03T04:47:47;18.70;99.90
3713;DHT22;1872;51.406;6.856;2022-08-03T04:50:13;18.70;99.90
3713;DHT22;1872;51.406;6.856;2022-08-03T04:52:39;18.80;99.90
3713;DHT22;1872;51.406;6.856;2022-08-03T04:55:05;18.80;99.90
3713;DHT22;1872;51.406;6.856;2022-08-03T04:57:31;18.80;99.90
3713;DHT22;1872;51.406;6.856;2022-08-03T04:59:56;18.90;99.90
3713;DHT22;1872;51.406;6.856;2022-08-03T05:02:22;18.90;99.90
3713;DHT22;1872;51.406;6.856;2022-08-03T05:04:48;18.90;99.90
3713;DHT22;1872;51.406;6.856;2022-08-03T05:07:15;19.00;99.90
3713;DHT22;1872;51.406;6.856;2022-08-03T05:09:42;19.00;99.90
3713;DHT22;1872;51.406;6.856;2022-08-03T05:12:07;19.00;99.90
3713;DHT22;1872;51.406;6.856;2022-08-03T05:14:34;19.00;99.90
3713;DHT22;1872;51.406;6.856;2022-08-03T05:17:06;19.10;99.90
3713;DHT22;1872;51.406;6.856;2022-08-03T05:19:32;19.10;99.90
3713;DHT22;1872;51.406;6.856;2022-08-03T05:21:58;19.10;99.90
3713;DHT22;1872;51.406;6.856;2022-08-03T05:24:24;19.20;99.90
3713;DHT22;1872;51.406;6.856;2022-08-03T05:26:50;19.20;99.90
3713;DHT22;1872;51.406;6.856;2022-08-03T05:29:15;19.20;99.90
3713;DHT22;1872;51.406;6.856;2022-08-03T05:31:41;19.30;99.90
3713;DHT22;1872;51.406;6.856;2022-08-03T05:34:07;19.30;99.90
3713;DHT22;1872;51.406;6.856;2022-08-03T05:36:32;19.40;99.90
3713;DHT22;1872;51.406;6.856;2022-08-03T05:38:58;19.40;99.90
3713;DHT22;1872;51.406;6.856;2022-08-03T05:41:24;19.50;99.90
3713;DHT22;1872;51.406;6.856;2022-08-03T05:43:50;19.60;99.90
3713;DHT22;1872;51.406;6.856;2022-08-03T05:46:16;19.70;99.90
3713;DHT22;1872;51.406;6.856;2022-08-03T05:48:42;19.80;99.90
3713;DHT22;1872;51.406;6.856;2022-08-03T05:51:08;19.90;99.90
3713;DHT22;1872;51.406;6.856;2022-08-03T05:53:35;19.90;99.90
3713;DHT22;1872;51.406;6.856;2022-08-03T05:56:01;20.00;99.90
3713;DHT22;1872;51.406;6.856;2022-08-03T05:58:27;20.10;99.90
3713;DHT22;1872;51.406;6.856;2022-08-03T06:00:53;20.30;99.90
3713;DHT22;1872;51.406;6.856;2022-08-03T06:03:19;20.40;99.90
3713;DHT22;1872;51.406;6.856;2022-08-03T06:05:45;20.50;99.90
3713;DHT22;1872;51.406;6.856;2022-08-03T06:08:12;20.80;99.90
3713;DHT22;1872;51.406;6.856;2022-08-03T06:10:38;21.90;99.90
3713;DHT22;1872;51.406;6.856;2022-08-03T06:13:04;22.80;99.90
3713;DHT22;1872;51.406;6.856;2022-08-03T06:15:29;23.50;99.90
3713;DHT22;1872;51.406;6.856;2022-08-03T06:18:01;24.70;99.90
3713;DHT22;1872;51.406;6.856;2022-08-03T06:20:27;25.70;99.90
3713;DHT22;1872;51.406;6.856;2022-08-03T06:22:55;26.40;99.90
3713;DHT22;1872;51.406;6.856;2022-08-03T06:25:27;26.90;99.90
3713;DHT22;1872;51.406;6.856;2022-08-03T06:27:53;27.00;99.90
3713;DHT22;1872;51.406;6.856;2022-08-03T06:30:19;27.10;99.90
3713;DHT22;1872;51.406;6.856;2022-08-03T06:32:44;26.80;99.90
3713;DHT22;1872;51.406;6.856;2022-08-03T06:35:10;26.90;99.90
3713;DHT22;1872;51.406;6.856;2022-08-03T06:37:46;26.80;99.90
3713;DHT22;1872;51.406;6.856;2022-08-03T06:40:14;26.60;99.90
3713;DHT22;1872;51.406;6.856;2022-08-03T06:42:43;26.30;99.90
3713;DHT22;1872;51.406;6.856;2022-08-03T06:45:10;26.00;99.90
3713;DHT22;1872;51.406;6.856;2022-08-03T06:47:36;25.60;99.90
3713;DHT22;1872;51.406;6.856;2022-08-03T06:50:03;25.30;99.90
3713;DHT22;1872;51.406;6.856;2022-08-03T06:52:29;25.30;99.90
3713;DHT22;1872;51.406;6.856;2022-08-03T06:54:54;25.50;99.90
3713;DHT22;1872;51.406;6.856;2022-08-03T06:57:21;26.00;99.90
3713;DHT22;1872;51.406;6.856;2022-08-03T06:59:47;26.40;99.90
3713;DHT22;1872;51.406;6.856;2022-08-03T07:02:13;26.80;99.90
3713;DHT22;1872;51.406;6.856;2022-08-03T07:04:39;27.10;99.90
3713;DHT22;1872;51.406;6.856;2022-08-03T07:07:04;27.30;99.90
3713;DHT22;1872;51.406;6.856;2022-08-03T07:09:30;27.40;99.90
3713;DHT22;1872;51.406;6.856;2022-08-03T07:11:56;27.50;99.90
3713;DHT22;1872;51.406;6.856;2022-08-03T07:14:23;27.60;99.90
3713;DHT22;1872;51.406;6.856;2022-08-03T07:16:48;27.40;99.90
3713;DHT22;1872;51.406;6.856;2022-08-03T07:19:14;27.40;99.90
3713;DHT22;1872;51.406;6.856;2022-08-03T07:21:40;27.40;99.90
3713;DHT22;1872;51.406;6.856;2022-08-03T07:24:06;27.50;99.90
3713;DHT22;1872;51.406;6.856;2022-08-03T07:26:31;27.70;99.90
3713;DHT22;1872;51.406;6.856;2022-08-03T07:29:02;27.90;99.90
3713;DHT22;1872;51.406;6.856;2022-08-03T07:31:28;28.10;99.90
3713;DHT22;1872;51.406;6.856;2022-08-03T07:33:53;28.50;99.90
3713;DHT22;1872;51.406;6.856;2022-08-03T07:36:19;29.00;99.90
3713;DHT22;1872;51.406;6.856;2022-08-03T07:38:45;29.50;99.90
3713;DHT22;1872;51.406;6.856;2022-08-03T07:41:11;29.70;99.90
3713;DHT22;1872;51.406;6.856;2022-08-03T07:43:37;29.70;99.90
3713;DHT22;1872;51.406;6.856;2022-08-03T07:46:02;29.70;99.90
3713;DHT22;1872;51.406;6.856;2022-08-03T07:48:28;29.80;99.90
3713;DHT22;1872;51.406;6.856;2022-08-03T07:50:54;29.90;99.90
3713;DHT22;1872;51.406;6.856;2022-08-03T07:53:20;30.10;99.90
3713;DHT22;1872;51.406;6.856;2022-08-03T07:55:46;30.30;99.90
3713;DHT22;1872;51.406;6.856;2022-08-03T07:58:12;30.50;99.60
3713;DHT22;1872;51.406;6.856;2022-08-03T08:00:42;30.60;99.20
3713;DHT22;1872;51.406;6.856;2022-08-03T08:03:09;30.90;99.10
3713;DHT22;1872;51.406;6.856;2022-08-03T08:05:35;31.10;98.20
3713;DHT22;1872;51.406;6.856;2022-08-03T08:08:02;31.30;97.60
3713;DHT22;1872;51.406;6.856;2022-08-03T08:10:29;31.50;96.90
3713;DHT22;1872;51.406;6.856;2022-08-03T08:12:55;31.70;96.50
3713;DHT22;1872;51.406;6.856;2022-08-03T08:15:22;31.80;96.10
3713;DHT22;1872;51.406;6.856;2022-08-03T08:17:50;32.00;95.40
3713;DHT22;1872;51.406;6.856;2022-08-03T08:20:21;32.00;95.10
3713;DHT22;1872;51.406;6.856;2022-08-03T08:22:49;32.10;94.40
3713;DHT22;1872;51.406;6.856;2022-08-03T08:25:15;32.20;94.00
3713;DHT22;1872;51.406;6.856;2022-08-03T08:27:45;32.40;93.50
3713;DHT22;1872;51.406;6.856;2022-08-03T08:30:13;32.60;92.70
3713;DHT22;1872;51.406;6.856;2022-08-03T08:32:40;32.70;92.20
3713;DHT22;1872;51.406;6.856;2022-08-03T08:35:07;32.90;91.60
3713;DHT22;1872;51.406;6.856;2022-08-03T08:37:34;33.20;91.00
3713;DHT22;1872;51.406;6.856;2022-08-03T08:39:59;33.20;90.70
3713;DHT22;1872;51.406;6.856;2022-08-03T08:42:25;33.20;90.40
3713;DHT22;1872;51.406;6.856;2022-08-03T08:44:51;33.20;90.20
3713;DHT22;1872;51.406;6.856;2022-08-03T08:47:28;33.30;89.60
3713;DHT22;1872;51.406;6.856;2022-08-03T08:49:54;33.40;88.70
3713;DHT22;1872;51.406;6.856;2022-08-03T08:52:28;33.40;88.20
3713;DHT22;1872;51.406;6.856;2022-08-03T08:54:59;33.50;87.20
3713;DHT22;1872;51.406;6.856;2022-08-03T08:57:28;33.50;86.10
3713;DHT22;1872;51.406;6.856;2022-08-03T08:59:55;33.60;85.40
3713;DHT22;1872;51.406;6.856;2022-08-03T09:02:25;33.50;84.50
3713;DHT22;1872;51.406;6.856;2022-08-03T09:04:54;33.50;83.70
3713;DHT22;1872;51.406;6.856;2022-08-03T09:07:21;33.40;82.80
3713;DHT22;1872;51.406;6.856;2022-08-03T09:09:47;33.40;80.40
3713;DHT22;1872;51.406;6.856;2022-08-03T09:12:15;33.30;81.30
3713;DHT22;1872;51.406;6.856;2022-08-03T09:14:41;33.40;79.80
3713;DHT22;1872;51.406;6.856;2022-08-03T09:17:06;33.30;79.70
3713;DHT22;1872;51.406;6.856;2022-08-03T09:19:35;33.00;79.80
3713;DHT22;1872;51.406;6.856;2022-08-03T09:22:11;32.80;79.70
3713;DHT22;1872;51.406;6.856;2022-08-03T09:24:54;32.60;79.60
3713;DHT22;1872;51.406;6.856;2022-08-03T09:27:20;32.40;79.80
3713;DHT22;1872;51.406;6.856;2022-08-03T09:29:51;32.20;80.00
3713;DHT22;1872;51.406;6.856;2022-08-03T09:32:23;32.00;80.20
3713;DHT22;1872;51.406;6.856;2022-08-03T09:34:51;31.80;80.40
3713;DHT22;1872;51.406;6.856;2022-08-03T09:37:19;31.50;80.40
3713;DHT22;1872;51.406;6.856;2022-08-03T09:39:45;31.40;80.90
3713;DHT22;1872;51.406;6.856;2022-08-03T09:42:18;31.30;81.00
3713;DHT22;1872;51.406;6.856;2022-08-03T09:44:49;31.10;80.90
3713;DHT22;1872;51.406;6.856;2022-08-03T09:47:33;31.00;81.10
3713;DHT22;1872;51.406;6.856;2022-08-03T09:50:08;31.00;81.50
3713;DHT22;1872;51.406;6.856;2022-08-03T09:52:37;30.90;81.70
3713;DHT22;1872;51.406;6.856;2022-08-03T09:55:12;30.90;81.50
3713;DHT22;1872;51.406;6.856;2022-08-03T09:57:38;30.80;81.60
3713;DHT22;1872;51.406;6.856;2022-08-03T10:00:11;30.70;81.70
3713;DHT22;1872;51.406;6.856;2022-08-03T10:02:40;30.60;82.00
3713;DHT22;1872;51.406;6.856;2022-08-03T10:05:07;30.40;82.20
3713;DHT22;1872;51.406;6.856;2022-08-03T10:07:48;30.30;82.40
3713;DHT22;1872;51.406;6.856;2022-08-03T10:10:16;30.20;83.10
3713;DHT22;1872;51.406;6.856;2022-08-03T10:12:45;30.10;83.40
3713;DHT22;1872;51.406;6.856;2022-08-03T10:15:13;29.80;83.70
3713;DHT22;1872;51.406;6.856;2022-08-03T10:17:38;29.80;83.80
3713;DHT22;1872;51.406;6.856;2022-08-03T10:20:05;29.80;83.70
3713;DHT22;1872;51.406;6.856;2022-08-03T10:22:35;29.80;83.80
3713;DHT22;1872;51.406;6.856;2022-08-03T10:25:09;29.70;83.90
3713;DHT22;1872;51.406;6.856;2022-08-03T10:27:37;29.70;83.90
3713;DHT22;1872;51.406;6.856;2022-08-03T10:30:09;29.70;84.10
3713;DHT22;1872;51.406;6.856;2022-08-03T10:33:08;29.70;84.30
3713;DHT22;1872;51.406;6.856;2022-08-03T10:35:36;29.60;84.30
3713;DHT22;1872;51.406;6.856;2022-08-03T10:38:08;29.50;84.40
3713;DHT22;1872;51.406;6.856;2022-08-03T10:40:37;29.50;84.70
3713;DHT22;1872;51.406;6.856;2022-08-03T10:43:19;29.40;85.10
3713;DHT22;1872;51.406;6.856;2022-08-03T10:45:46;29.30;85.00
3713;DHT22;1872;51.406;6.856;2022-08-03T10:48:12;29.40;85.10
3713;DHT22;1872;51.406;6.856;2022-08-03T10:50:39;29.40;85.00
3713;DHT22;1872;51.406;6.856;2022-08-03T10:53:07;29.40;84.80
3713;DHT22;1872;51.406;6.856;2022-08-03T10:55:38;29.40;84.60
3713;DHT22;1872;51.406;6.856;2022-08-03T11:01:10;29.60;83.40
3713;DHT22;1872;51.406;6.856;2022-08-03T11:06:19;29.50;83.70
3713;DHT22;1872;51.406;6.856;2022-08-03T11:08:47;29.50;84.10
3713;DHT22;1872;51.406;6.856;2022-08-03T11:16:34;29.50;83.70
3713;DHT22;1872;51.406;6.856;2022-08-03T11:19:05;29.60;84.00
3713;DHT22;1872;51.406;6.856;2022-08-03T11:27:20;29.50;84.40
3713;DHT22;1872;51.406;6.856;2022-08-03T11:35:17;29.50;84.10
3713;DHT22;1872;51.406;6.856;2022-08-03T11:40:44;29.30;84.50
3713;DHT22;1872;51.406;6.856;2022-08-03T11:46:07;29.00;85.20
3713;DHT22;1872;51.406;6.856;2022-08-03T11:48:42;29.00;85.00
3713;DHT22;1872;51.406;6.856;2022-08-03T11:51:29;29.10;85.00
3713;DHT22;1872;51.406;6.856;2022-08-03T11:53:58;29.20;85.20
3713;DHT22;1872;51.406;6.856;2022-08-03T11:56:25;29.10;84.90
3713;DHT22;1872;51.406;6.856;2022-08-03T11:58:54;29.10;84.60
3713;DHT22;1872;51.406;6.856;2022-08-03T12:01:21;29.10;84.60
3713;DHT22;1872;51.406;6.856;2022-08-03T12:03:51;29.10;85.00
3713;DHT22;1872;51.406;6.856;2022-08-03T12:06:24;29.10;85.70
3713;DHT22;1872;51.406;6.856;2022-08-03T12:08:51;29.20;84.40
3713;DHT22;1872;51.406;6.856;2022-08-03T12:11:17;29.20;84.40
3713;DHT22;1872;51.406;6.856;2022-08-03T12:13:50;29.30;84.30
3713;DHT22;1872;51.406;6.856;2022-08-03T12:16:24;29.30;84.00
3713;DHT22;1872;51.406;6.856;2022-08-03T12:19:04;29.30;84.40
3713;DHT22;1872;51.406;6.856;2022-08-03T12:21:31;29.30;84.10
3713;DHT22;1872;51.406;6.856;2022-08-03T12:24:04;29.30;83.60
3713;DHT22;1872;51.406;6.856;2022-08-03T12:29:18;29.40;83.00
3713;DHT22;1872;51.406;6.856;2022-08-03T12:31:48;29.40;83.30
3713;DHT22;1872;51.406;6.856;2022-08-03T12:34:15;29.40;83.60
3713;DHT22;1872;51.406;6.856;2022-08-03T12:36:53;29.30;83.50
3713;DHT22;1872;51.406;6.856;2022-08-03T12:39:25;29.30;83.50
3713;DHT22;1872;51.406;6.856;2022-08-03T12:41:53;29.30;83.40
3713;DHT22;1872;51.406;6.856;2022-08-03T12:44:41;29.40;83.40
3713;DHT22;1872;51.406;6.856;2022-08-03T12:47:07;29.30;83.00
3713;DHT22;1872;51.406;6.856;2022-08-03T12:49:45;29.40;83.00
3713;DHT22;1872;51.406;6.856;2022-08-03T12:52:11;29.40;82.90
3713;DHT22;1872;51.406;6.856;2022-08-03T12:54:37;29.30;83.20
3713;DHT22;1872;51.406;6.856;2022-08-03T12:57:04;29.20;83.50
3713;DHT22;1872;51.406;6.856;2022-08-03T12:59:32;29.20;83.60
3713;DHT22;1872;51.406;6.856;2022-08-03T13:02:14;29.20;83.50
3713;DHT22;1872;51.406;6.856;2022-08-03T13:04:42;29.20;83.20
3713;DHT22;1872;51.406;6.856;2022-08-03T13:07:09;29.30;83.30
3713;DHT22;1872;51.406;6.856;2022-08-03T13:12:13;29.40;83.00
3713;DHT22;1872;51.406;6.856;2022-08-03T13:14:44;29.40;83.10
3713;DHT22;1872;51.406;6.856;2022-08-03T13:17:09;29.40;82.80
3713;DHT22;1872;51.406;6.856;2022-08-03T13:19:36;29.50;83.10
3713;DHT22;1872;51.406;6.856;2022-08-03T13:22:24;29.50;82.10
3713;DHT22;1872;51.406;6.856;2022-08-03T13:24:55;29.50;81.70
3713;DHT22;1872;51.406;6.856;2022-08-03T13:27:22;29.50;81.30
3713;DHT22;1872;51.406;6.856;2022-08-03T13:29:48;29.60;81.20
3713;DHT22;1872;51.406;6.856;2022-08-03T13:32:17;29.50;81.60
3713;DHT22;1872;51.406;6.856;2022-08-03T13:34:43;29.40;81.90
3713;DHT22;1872;51.406;6.856;2022-08-03T13:37:08;29.40;82.20
3713;DHT22;1872;51.406;6.856;2022-08-03T13:39:37;29.40;82.10
3713;DHT22;1872;51.406;6.856;2022-08-03T13:42:03;29.40;82.70
3713;DHT22;1872;51.406;6.856;2022-08-03T13:44:30;29.50;81.80
3713;DHT22;1872;51.406;6.856;2022-08-03T13:46:56;29.40;81.90
3713;DHT22;1872;51.406;6.856;2022-08-03T13:49:26;29.50;81.80
3713;DHT22;1872;51.406;6.856;2022-08-03T13:51:51;29.50;81.80
3713;DHT22;1872;51.406;6.856;2022-08-03T13:54:17;29.50;82.00
3713;DHT22;1872;51.406;6.856;2022-08-03T13:56:43;29.40;81.90
3713;DHT22;1872;51.406;6.856;2022-08-03T13:59:14;29.50;81.90
3713;DHT22;1872;51.406;6.856;2022-08-03T14:01:42;29.50;82.00
3713;DHT22;1872;51.406;6.856;2022-08-03T14:04:07;29.40;81.80
3713;DHT22;1872;51.406;6.856;2022-08-03T14:06:33;29.40;80.70
3713;DHT22;1872;51.406;6.856;2022-08-03T14:08:59;29.50;80.40
3713;DHT22;1872;51.406;6.856;2022-08-03T14:11:24;29.50;80.70
3713;DHT22;1872;51.406;6.856;2022-08-03T14:13:50;29.40;81.00
3713;DHT22;1872;51.406;6.856;2022-08-03T14:16:15;29.40;80.40
3713;DHT22;1872;51.406;6.856;2022-08-03T14:18:41;29.40;80.60
3713;DHT22;1872;51.406;6.856;2022-08-03T14:21:08;29.30;81.10
3713;DHT22;1872;51.406;6.856;2022-08-03T14:23:38;29.30;80.70
3713;DHT22;1872;51.406;6.856;2022-08-03T14:26:06;29.30;80.70
3713;DHT22;1872;51.406;6.856;2022-08-03T14:28:32;29.30;80.90
3713;DHT22;1872;51.406;6.856;2022-08-03T14:30:58;29.20;80.80
3713;DHT22;1872;51.406;6.856;2022-08-03T14:33:24;29.30;81.10
3713;DHT22;1872;51.406;6.856;2022-08-03T14:35:50;29.30;81.10
3713;DHT22;1872;51.406;6.856;2022-08-03T14:38:17;29.30;80.80
3713;DHT22;1872;51.406;6.856;2022-08-03T14:40:43;29.30;80.10
3713;DHT22;1872;51.406;6.856;2022-08-03T14:43:11;29.30;80.10
3713;DHT22;1872;51.406;6.856;2022-08-03T14:45:38;29.20;79.80
3713;DHT22;1872;51.406;6.856;2022-08-03T14:48:04;29.20;78.70
3713;DHT22;1872;51.406;6.856;2022-08-03T14:50:30;29.20;77.70
3713;DHT22;1872;51.406;6.856;2022-08-03T14:52:56;29.30;77.80
3713;DHT22;1872;51.406;6.856;2022-08-03T14:55:23;29.20;78.50
3713;DHT22;1872;51.406;6.856;2022-08-03T14:57:49;29.20;78.40
3713;DHT22;1872;51.406;6.856;2022-08-03T15:00:15;29.30;78.40
3713;DHT22;1872;51.406;6.856;2022-08-03T15:02:41;29.30;77.40
3713;DHT22;1872;51.406;6.856;2022-08-03T15:05:07;29.30;77.80
3713;DHT22;1872;51.406;6.856;2022-08-03T15:07:33;29.10;78.60
3713;DHT22;1872;51.406;6.856;2022-08-03T15:09:58;29.10;78.90
3713;DHT22;1872;51.406;6.856;2022-08-03T15:12:24;29.10;78.80
3713;DHT22;1872;51.406;6.856;2022-08-03T15:14:50;29.20;77.90
3713;DHT22;1872;51.406;6.856;2022-08-03T15:17:16;29.30;78.10
3713;DHT22;1872;51.406;6.856;2022-08-03T15:19:42;29.30;78.20
3713;DHT22;1872;51.406;6.856;2022-08-03T15:22:08;29.30;77.90
3713;DHT22;1872;51.406;6.856;2022-08-03T15:24:33;29.30;77.40
3713;DHT22;1872;51.406;6.856;2022-08-03T15:26:59;29.40;77.00
3713;DHT22;1872;51.406;6.856;2022-08-03T15:29:25;29.40;76.60
3713;DHT22;1872;51.406;6.856;2022-08-03T15:31:51;29.40;76.20
3713;DHT22;1872;51.406;6.856;2022-08-03T15:34:16;29.40;75.60
3713;DHT22;1872;51.406;6.856;2022-08-03T15:36:43;29.40;75.50
3713;DHT22;1872;51.406;6.856;2022-08-03T15:39:08;29.50;76.20
3713;DHT22;1872;51.406;6.856;2022-08-03T15:41:35;29.40;76.40
3713;DHT22;1872;51.406;6.856;2022-08-03T15:44:02;29.40;77.00
3713;DHT22;1872;51.406;6.856;2022-08-03T15:46:30;29.30;76.90
3713;DHT22;1872;51.406;6.856;2022-08-03T15:48:56;29.30;77.00
3713;DHT22;1872;51.406;6.856;2022-08-03T15:51:22;29.20;77.20
3713;DHT22;1872;51.406;6.856;2022-08-03T15:53:48;29.20;77.20
3713;DHT22;1872;51.406;6.856;2022-08-03T15:56:13;29.10;77.20
3713;DHT22;1872;51.406;6.856;2022-08-03T15:58:40;29.10;77.40
3713;DHT22;1872;51.406;6.856;2022-08-03T16:01:08;29.10;77.80
3713;DHT22;1872;51.406;6.856;2022-08-03T16:03:37;29.10;78.20
3713;DHT22;1872;51.406;6.856;2022-08-03T16:06:05;29.00;78.10
3713;DHT22;1872;51.406;6.856;2022-08-03T16:08:32;29.00;77.00
3713;DHT22;1872;51.406;6.856;2022-08-03T16:10:59;29.00;76.80
3713;DHT22;1872;51.406;6.856;2022-08-03T16:13:26;29.10;76.90
3713;DHT22;1872;51.406;6.856;2022-08-03T16:15:52;29.10;76.80
3713;DHT22;1872;51.406;6.856;2022-08-03T16:18:18;29.10;76.70
3713;DHT22;1872;51.406;6.856;2022-08-03T16:20:44;29.00;77.10
3713;DHT22;1872;51.406;6.856;2022-08-03T16:23:10;28.90;77.40
3713;DHT22;1872;51.406;6.856;2022-08-03T16:25:38;29.00;77.40
3713;DHT22;1872;51.406;6.856;2022-08-03T16:28:04;29.00;77.30
3713;DHT22;1872;51.406;6.856;2022-08-03T16:30:30;29.00;77.30
3713;DHT22;1872;51.406;6.856;2022-08-03T16:32:55;28.90;78.00
3713;DHT22;1872;51.406;6.856;2022-08-03T16:35:21;28.80;77.90
3713;DHT22;1872;51.406;6.856;2022-08-03T16:37:48;28.80;78.30
3713;DHT22;1872;51.406;6.856;2022-08-03T16:40:14;28.80;78.70
3713;DHT22;1872;51.406;6.856;2022-08-03T16:42:42;28.70;78.80
3713;DHT22;1872;51.406;6.856;2022-08-03T16:45:09;28.70;78.90
3713;DHT22;1872;51.406;6.856;2022-08-03T16:47:35;28.70;78.60
3713;DHT22;1872;51.406;6.856;2022-08-03T16:50:00;28.70;78.70